Alford, FL (32420)

4:44 AM CST on February 07, 2016 (GMT -0600)
North Side Marianna | | Change Station
CLOSE
Current Station
Personal Weather Station
Location: Marianna, FL
Elevation: 141 ft
Nearby Weather Stations

Elev 141 ft 30.79 °N, 85.22 °W | Updated 14 minutes ago

Clear
Clear
32.4 °F
Feels Like 32 °F
N
0.0
Wind Variable Wind from West

Today
High -- | Low -- °F
--% Chance of Precip.
Yesterday
High -- | Low -- °F
Precip. -- in
Pressure 30.15 in
Visibility 10.0 miles
Clouds Clear
Windchill 32 °F
Dew Point 30 °F
Humidity 89%
Rainfall 0.00 in
Snow Depth Not available.
6:29 AM 5:22 PM
Waning Crescent, 2% visible
METAR KMAI 070953Z AUTO 30004KT 10SM CLR 02/00 A3015 RMK AO1 SLP208 T00170000
Pressure 30.15 in
Visibility 10.0 miles
Clouds Clear
Windchill 32 °F
Dew Point 30 °F
Humidity 89%
Rainfall 0.00 in
Snow Depth Not available.
6:29 AM 5:22 PM
Waning Crescent, 2% visible
METAR KMAI 070953Z AUTO 30004KT 10SM CLR 02/00 A3015 RMK AO1 SLP208 T00170000

10-Day Weather Forecast

Almanac

Astronomy

Feb. 07, 2016 Rise Set
Actual Time
Civil Twilight
Nautical Twilight
Astronomical Twilight
Moon
Length of Visible Light
Length of Day
Tomorrow will be .
, % of the Moon is Illuminated

Today's Extremes

State Highs State Lows

Community

WunderPhotos

Upload Photos

1,891,171 photos uploaded!

WunderBlog® & News

Nearby

Air Quality

  Air Quality AQ Index Pollutant
Not available.

Snow Depth

Station Depth Elevation

Earthquake Activity

City Distance Mag. Time & Date
Minimum magnitude displayed is 2.5.

Coastal Water Temperatures

Place Temperature

Stations

Nearby Weather Stations

Station Location Temp. Windchill Dew Point Humidity Wind Precip. Elev Updated Type
                   

Watches & Warnings

There are currently no watches in effect.